Weather History for KCVX - November, 2011

Change the Weather History Date:

Thursday, November 10, 2011

  Actual Average Record
Temperature  
Mean Temperature 36 °F -  
Max Temperature 39 °F 44 °F 60 °F (2002)
Min Temperature 33 °F 39 °F 29 °F (2014)
Degree Days  
Heating Degree Days 29    
Moisture  
Dew Point 32 °F    
Average Humidity 81    
Maximum Humidity 100    
Minimum Humidity 70    
Precipitation  
Precipitation 0.00 in - - ()
Sea Level Pressure  
Sea Level Pressure 29.76 in    
Wind  
Wind Speed 21 mph (West)    
Max Wind Speed 32 mph    
Max Gust Speed 43 mph    
Visibility 9 miles    
Events Rain , Snow    
Averages and records for this station are not official NWS values.
T = Trace of Precipitation, MM = Missing Value Source: NWS Daily Summary

Daily Weather History Graph

Daily Weather History Graph

Search for Another Location

Airport or City:

Trip Planner

Search our weather history database for the weather conditions in past years. The results will help you decide how hot, cold, wet, or windy it might be!

Date:

Astronomy

Nov. 10, 2011 Rise Set
Actual Time 7:32 AM EST 5:17 PM EST
Civil Twilight 7:00 AM EST 5:48 PM EST
Nautical Twilight 6:25 AM EST 6:24 PM EST
Astronomical Twilight 5:50 AM EST 6:58 PM EST
Moon 5:01 PM EST (11/10) 7:26 AM EST (11/10)
Length of Visible Light 10h 47m
Length of Day
9h 44m
Full, 100% of the Moon is Illuminated
Nov 10
Full
Nov 10
Full
Nov 18
Last Quarter
Nov 25
New
Dec 2
First Quarter

Hourly Weather History & Observations

Time (EST) Temp. Windchill Dew Point Humidity Pressure Visibility Wind Dir Wind Speed Gust Speed Precip Events Conditions
12:15 AM 37.4 °F 24.8 °F 33.8 °F 87% 29.62 in 10.0 mi West 31.1 mph 42.6 mph N/A   Overcast
12:34 AM 37.4 °F 25.9 °F 33.8 °F 87% 29.62 in 10.0 mi West 25.3 mph 39.1 mph N/A   Overcast
12:54 AM 37.4 °F 24.6 °F 32.0 °F 81% 29.63 in 10.0 mi West 32.2 mph 42.6 mph N/A   Overcast
1:15 AM 37.4 °F 25.2 °F 32.0 °F 81% 29.63 in 10.0 mi West 28.8 mph 40.3 mph N/A   Overcast
1:34 AM 37.4 °F 26.6 °F 32.0 °F 81% 29.64 in 10.0 mi West 21.9 mph 39.1 mph N/A   Overcast
1:54 AM 37.4 °F 25.6 °F 32.0 °F 81% 29.65 in 10.0 mi West 26.5 mph 36.8 mph N/A   Overcast
2:15 AM 37.4 °F 25.6 °F 32.0 °F 81% 29.66 in 10.0 mi West 26.5 mph 38.0 mph N/A   Overcast
2:34 AM 37.4 °F 25.9 °F 32.0 °F 81% 29.67 in 10.0 mi West 25.3 mph 36.8 mph N/A   Overcast
2:54 AM 39.2 °F 27.6 °F 32.0 °F 75% 29.68 in 10.0 mi West 28.8 mph 34.5 mph N/A   Overcast
3:15 AM 39.2 °F 28.3 °F 32.0 °F 75% 29.69 in 10.0 mi West 25.3 mph 33.4 mph N/A   Overcast
3:34 AM 39.2 °F 28.7 °F 32.0 °F 75% 29.69 in 10.0 mi West 23.0 mph 29.9 mph N/A   Overcast
3:54 AM 39.2 °F 27.8 °F 32.0 °F 75% 29.69 in 10.0 mi West 27.6 mph 33.4 mph N/A   Overcast
4:14 AM 39.2 °F 28.0 °F 30.2 °F 70% 29.70 in 10.0 mi West 26.5 mph 31.1 mph N/A   Overcast
4:34 AM 39.2 °F 29.6 °F 32.0 °F 75% 29.71 in 10.0 mi West 19.6 mph 31.1 mph N/A   Overcast
4:55 AM 39.2 °F 28.5 °F 30.2 °F 70% 29.72 in 10.0 mi West 24.2 mph 29.9 mph N/A   Overcast
5:14 AM 39.2 °F 29.3 °F 32.0 °F 75% 29.72 in 10.0 mi West 20.7 mph 27.6 mph N/A   Overcast
5:55 AM 39.2 °F 30.2 °F 32.0 °F 75% 29.73 in 10.0 mi West 17.3 mph 28.8 mph N/A   Overcast
6:14 AM 39.2 °F 29.6 °F 30.2 °F 70% 29.73 in 10.0 mi West 19.6 mph 25.3 mph N/A   Overcast
6:35 AM 39.2 °F 29.8 °F 32.0 °F 75% 29.74 in 10.0 mi West 18.4 mph 23.0 mph N/A   Overcast
6:55 AM 39.2 °F 29.3 °F 30.2 °F 70% 29.74 in 10.0 mi West 20.7 mph 26.5 mph N/A   Overcast
7:14 AM 39.2 °F 29.6 °F 32.0 °F 75% 29.74 in 10.0 mi West 19.6 mph 26.5 mph N/A Rain Light Rain
7:35 AM 37.4 °F 27.5 °F 32.0 °F 81% 29.75 in 7.0 mi West 18.4 mph 26.5 mph N/A   Overcast
7:54 AM 37.4 °F 28.5 °F 33.8 °F 87% 29.75 in 10.0 mi West 15.0 mph - N/A   Overcast
8:14 AM 37.4 °F 27.5 °F 32.0 °F 81% 29.76 in 10.0 mi West 18.4 mph 24.2 mph N/A   Overcast
8:35 AM 39.2 °F 30.8 °F 32.0 °F 75% 29.77 in 10.0 mi West 15.0 mph - N/A   Overcast
8:54 AM 39.2 °F 30.5 °F 32.0 °F 75% 29.77 in 10.0 mi West 16.1 mph 19.6 mph N/A   Overcast
9:35 AM 37.4 °F 28.5 °F 32.0 °F 81% 29.77 in 5.0 mi WSW 15.0 mph - N/A Rain Light Rain
9:54 AM 39.2 °F 31.6 °F 32.0 °F 75% 29.77 in 10.0 mi WSW 12.7 mph 21.9 mph N/A   Overcast
10:14 AM 39.2 °F 30.8 °F 32.0 °F 75% 29.78 in 10.0 mi WSW 15.0 mph 20.7 mph N/A   Overcast
10:35 AM 39.2 °F 30.2 °F 32.0 °F 75% 29.78 in 10.0 mi West 17.3 mph 21.9 mph N/A   Overcast
10:54 AM 39.2 °F 30.2 °F 32.0 °F 75% 29.78 in 10.0 mi West 17.3 mph 21.9 mph N/A   Overcast
11:14 AM 39.2 °F 30.8 °F 32.0 °F 75% 29.78 in 10.0 mi WSW 15.0 mph 23.0 mph N/A   Overcast
11:35 AM 39.2 °F 30.2 °F 33.8 °F 81% 29.79 in 10.0 mi WSW 17.3 mph - N/A Rain Light Rain
11:54 AM 39.2 °F 29.6 °F 33.8 °F 81% 29.79 in 10.0 mi West 19.6 mph 23.0 mph N/A Rain Light Rain
12:15 PM 37.4 °F 28.9 °F 33.8 °F 87% 29.78 in 7.0 mi West 13.8 mph 19.6 mph N/A Rain Light Rain
12:35 PM 37.4 °F 27.8 °F 33.8 °F 87% 29.78 in 10.0 mi West 17.3 mph 24.2 mph N/A   Overcast
12:54 PM 37.4 °F 27.8 °F 35.6 °F 93% 29.78 in 10.0 mi West 17.3 mph - N/A Rain Light Rain
1:34 PM 33.8 °F 24.3 °F 33.8 °F 100% 29.78 in 2.0 mi West 13.8 mph 18.4 mph N/A Snow Light Snow
1:54 PM 39.2 °F 31.2 °F 37.4 °F 93% 29.78 in 10.0 mi West 13.8 mph 21.9 mph N/A Rain Light Rain
2:15 PM 33.8 °F 25.3 °F 32.0 °F 93% 29.78 in 1.2 mi West 11.5 mph - N/A Snow Light Snow
2:34 PM 37.4 °F 32.1 °F 35.6 °F 93% 29.77 in 10.0 mi WSW 6.9 mph - N/A   Overcast
2:54 PM 37.4 °F 29.8 °F 35.6 °F 93% 29.77 in 7.0 mi West 11.5 mph - N/A Rain Light Rain
3:15 PM 37.4 °F 28.9 °F 33.8 °F 87% 29.78 in 10.0 mi WNW 13.8 mph 20.7 mph N/A   Overcast
3:34 PM 37.4 °F 29.3 °F 33.8 °F 87% 29.78 in 10.0 mi WNW 12.7 mph 16.1 mph N/A   Overcast
3:54 PM 37.4 °F 29.8 °F 33.8 °F 87% 29.79 in 10.0 mi West 11.5 mph 19.6 mph N/A   Mostly Cloudy
4:15 PM 37.4 °F 32.1 °F 33.8 °F 87% 29.79 in 10.0 mi West 6.9 mph - N/A   Mostly Cloudy
4:34 PM 37.4 °F 28.5 °F 32.0 °F 81% 29.80 in 10.0 mi WNW 15.0 mph 19.6 mph N/A   Overcast
4:55 PM 37.4 °F 28.9 °F 32.0 °F 81% 29.80 in 10.0 mi WNW 13.8 mph 17.3 mph N/A   Overcast
5:14 PM 37.4 °F 28.5 °F 33.8 °F 87% 29.81 in 10.0 mi WNW 15.0 mph 21.9 mph N/A   Overcast
5:34 PM 37.4 °F 29.3 °F 33.8 °F 87% 29.81 in 10.0 mi NW 12.7 mph 20.7 mph N/A   Overcast
5:55 PM 35.6 °F 25.9 °F 33.8 °F 93% 29.81 in 5.0 mi WNW 16.1 mph 21.9 mph N/A Rain Light Rain
6:15 PM 37.4 °F 28.9 °F 32.0 °F 81% 29.81 in 10.0 mi WNW 13.8 mph 21.9 mph N/A Rain Light Rain
6:34 PM 37.4 °F 27.8 °F 32.0 °F 81% 29.82 in 10.0 mi NW 17.3 mph 23.0 mph N/A   Overcast
6:55 PM 37.4 °F 28.5 °F 32.0 °F 81% 29.82 in 10.0 mi NW 15.0 mph 23.0 mph N/A   Mostly Cloudy
7:14 PM 37.4 °F 27.8 °F 32.0 °F 81% 29.82 in 10.0 mi NW 17.3 mph 23.0 mph N/A   Mostly Cloudy
7:34 PM 37.4 °F 28.5 °F 32.0 °F 81% 29.82 in 10.0 mi NW 15.0 mph 21.9 mph N/A   Overcast
7:55 PM 35.6 °F 25.9 °F 32.0 °F 87% 29.83 in 5.0 mi NW 16.1 mph 21.9 mph N/A Snow Light Snow
8:14 PM 35.6 °F 24.8 °F 32.0 °F 87% 29.83 in 10.0 mi NW 19.6 mph 23.0 mph N/A   Overcast
8:34 PM 35.6 °F 27.1 °F 32.0 °F 87% 29.83 in 7.0 mi NW 12.7 mph 24.2 mph N/A   Overcast
8:55 PM 35.6 °F 25.9 °F 30.2 °F 81% 29.83 in 10.0 mi NW 16.1 mph 24.2 mph N/A   Overcast
9:14 PM 37.4 °F 28.9 °F 30.2 °F 75% 29.83 in 10.0 mi NW 13.8 mph 23.0 mph N/A   Overcast
9:35 PM 37.4 °F 28.9 °F 30.2 °F 75% 29.83 in 10.0 mi WNW 13.8 mph 20.7 mph N/A   Overcast
9:55 PM 37.4 °F 28.5 °F 28.4 °F 70% 29.83 in 10.0 mi WNW 15.0 mph 21.9 mph N/A   Overcast
10:14 PM 37.4 °F 28.5 °F 28.4 °F 70% 29.83 in 10.0 mi NW 15.0 mph 23.0 mph N/A   Overcast
10:35 PM 37.4 °F 30.3 °F 30.2 °F 75% 29.83 in 10.0 mi WNW 10.4 mph 23.0 mph N/A   Overcast
10:55 PM 37.4 °F 27.8 °F 30.2 °F 75% 29.83 in 10.0 mi NW 17.3 mph 26.5 mph N/A   Overcast
11:14 PM 37.4 °F 28.2 °F 30.2 °F 75% 29.83 in 10.0 mi West 16.1 mph 27.6 mph N/A   Overcast
11:35 PM 37.4 °F 28.5 °F 28.4 °F 70% 29.83 in 10.0 mi WNW 15.0 mph - N/A   Overcast
11:54 PM 33.8 °F 23.9 °F 32.0 °F 93% 29.84 in 10.0 mi NNW 15.0 mph 24.2 mph N/A   Overcast